Accueil
METAR-TAF:

METAR-TAF

Aéroports :

Luxembourg, Luxembourg

Aéroport de Luxembourg-Findel

latitude: 49-37N, longitude: 006-13E, altitude: 376 m

Observation

Le bulletin a été fait il y a 40 minutes, à 02:50 UTC
Vent 9 kt de nord-est
Température 7°C
Humidité 57%
Pression 1021 hPa
Visibilité 10 km ou plus

METAR: ELLX 260250Z AUTO 05009KT 9999 NCD 07/M01 Q1021 NOSIG

Heure: 05:30 (03:30 UTC)

Prévision

Le bulletin a été fait il y a 4 heures et 30 minutes, à 23:00 UTC
Prévision valable du 26 à 00 UTC au 27 à 06 UTC
Vent 10 kt de est/nord-est
Visibilité 10 km ou plus
pas de nuages en-dessous de 1500 mètres et pas de cumulonimbus.

TAF: ELLX 252300Z 2600/2706 06010KT CAVOK

Observations et prévisions météorologiques de plus de 4000 aéroports (messages METAR et TAF).

Les stations disponibles sont représentées par des disques jaunes et rouges sur la carte.

Passer la souris dessus pour voir le nom de la station.

Cliquer dessus pour voir les observations et prévisions météorologiques.

Pour changer de carte: cliquez sur les boutons verts avec une croix noire pour zoomer, sur le bouton vert avec un tiret pour effectuer un zoom arrière, ou sur les flèches vertes pour les cartes adjacentes.


METAR-TAF: